Terminal Aerodrome Forecast
Issued by NWS

Home | Current Version | Previous Version | Graphics & Text | Print | Product List | Glossary Off
Versions: 1 2 3 4 5 6 7 8 9 10 11 12 13

000
FTUS45 KGGW 081146
TAFGDV
TAF
KGDV 081146Z 0812/0912 28005KT P6SM BKN015
     FM082300 29004KT P6SM SCT100
     FM090900 06006KT P6SM BKN070=

USA.gov is the U.S. government's official web portal to all federal, state and local government web resources and services.